createdAt,value
2023-05-20T00:01:07.056Z,1008.15
2023-05-20T00:11:12.496Z,1008.09
2023-05-20T00:21:18.170Z,1008.00
2023-05-20T00:31:24.315Z,1008.00
2023-05-20T00:41:29.844Z,1007.96
2023-05-20T00:51:35.095Z,1007.89
2023-05-20T01:01:40.559Z,1007.88
2023-05-20T01:11:46.437Z,1007.87
2023-05-20T01:21:56.364Z,1007.79
2023-05-20T01:32:03.872Z,1007.81
2023-05-20T01:42:10.440Z,1007.87
2023-05-20T01:52:17.861Z,1007.84
2023-05-20T02:02:25.239Z,1007.72
2023-05-20T02:12:32.768Z,1007.75
2023-05-20T02:22:40.073Z,1007.68
2023-05-20T02:32:48.038Z,1007.77
2023-05-20T02:42:56.254Z,1007.75
2023-05-20T02:53:03.553Z,1007.60
2023-05-20T03:03:11.647Z,1007.59
2023-05-20T03:13:18.717Z,1007.52
2023-05-20T03:23:26.331Z,1007.46
2023-05-20T03:33:33.500Z,1007.45
2023-05-20T03:43:40.913Z,1007.34
2023-05-20T03:53:47.811Z,1007.43
2023-05-20T04:03:56.296Z,1007.50
2023-05-20T04:14:03.675Z,1007.70
2023-05-20T04:24:11.473Z,1007.73
2023-05-20T04:34:19.592Z,1007.73
2023-05-20T04:44:26.888Z,1007.76
2023-05-20T04:54:34.041Z,1007.74
2023-05-20T05:04:41.445Z,1007.70
2023-05-20T05:14:48.491Z,1007.62
2023-05-20T05:24:55.546Z,1007.57
2023-05-20T05:35:02.812Z,1007.63
2023-05-20T05:45:10.108Z,1007.69
2023-05-20T05:55:18.114Z,1007.59
2023-05-20T06:05:28.260Z,1007.50
2023-05-20T06:15:36.743Z,1007.56
2023-05-20T06:25:44.025Z,1007.64
2023-05-20T06:35:51.031Z,1007.64
2023-05-20T06:45:58.239Z,1007.58
2023-05-20T06:56:05.849Z,1007.38
2023-05-20T07:06:14.253Z,1007.18
2023-05-20T07:16:21.512Z,1007.09
2023-05-20T07:26:28.891Z,1007.03
2023-05-20T07:36:36.124Z,1007.00
2023-05-20T07:46:42.649Z,1007.00
2023-05-20T07:56:49.996Z,1006.81
2023-05-20T08:06:56.471Z,1006.73
2023-05-20T08:17:02.061Z,1006.82
2023-05-20T08:27:07.998Z,1006.79
2023-05-20T08:37:14.140Z,1006.76
2023-05-20T08:47:19.638Z,1006.77
2023-05-20T08:57:25.733Z,1006.70
2023-05-20T09:07:31.801Z,1006.66
2023-05-20T09:17:37.559Z,1006.50
2023-05-20T09:27:43.123Z,1006.44
2023-05-20T09:37:48.778Z,1006.35
2023-05-20T09:47:54.524Z,1006.25
2023-05-20T09:58:00.305Z,1006.10
2023-05-20T10:08:05.734Z,1005.93
2023-05-20T10:18:11.670Z,1005.88
2023-05-20T10:28:17.559Z,1005.85
2023-05-20T10:38:23.589Z,1005.71
2023-05-20T10:48:29.714Z,1005.65
2023-05-20T10:58:35.694Z,1005.50
2023-05-20T11:08:41.248Z,1005.53
2023-05-20T11:18:47.129Z,1005.45
2023-05-20T11:28:53.057Z,1005.30
2023-05-20T11:38:59.101Z,1005.24
2023-05-20T11:49:04.969Z,1005.19
2023-05-20T11:59:10.653Z,1005.04
2023-05-20T12:09:16.782Z,1004.95
2023-05-20T12:19:22.586Z,1004.94
2023-05-20T12:29:28.103Z,1005.00
2023-05-20T12:39:33.639Z,1004.89
2023-05-20T12:49:39.219Z,1004.80
2023-05-20T12:59:44.991Z,1004.74
2023-05-20T13:09:50.060Z,1004.61
2023-05-20T13:19:55.064Z,1004.44
2023-05-20T13:30:00.702Z,1004.33
2023-05-20T13:40:06.057Z,1004.12
2023-05-20T13:50:11.725Z,1004.04
2023-05-20T14:00:17.540Z,1003.85
2023-05-20T14:10:22.876Z,1003.81
2023-05-20T14:20:28.885Z,1003.69
2023-05-20T14:30:34.999Z,1003.60
2023-05-20T14:40:41.432Z,1003.42
2023-05-20T14:50:48.901Z,1003.30
2023-05-20T15:00:55.300Z,1003.28
2023-05-20T15:11:00.714Z,1003.18
2023-05-20T15:21:06.828Z,1003.07
2023-05-20T15:31:12.470Z,1003.05
2023-05-20T15:41:18.487Z,1002.89
2023-05-20T15:51:23.993Z,1002.74
2023-05-20T16:01:29.743Z,1002.63
2023-05-20T16:11:35.241Z,1002.64
2023-05-20T16:21:40.697Z,1002.53
2023-05-20T16:31:47.253Z,1002.45
2023-05-20T16:41:52.921Z,1002.42
2023-05-20T16:51:58.539Z,1002.46
2023-05-20T17:02:04.464Z,1002.48
2023-05-20T17:12:10.486Z,1002.58
2023-05-20T17:22:16.603Z,1002.68
2023-05-20T17:32:22.248Z,1002.70
2023-05-20T17:42:27.880Z,1002.66
2023-05-20T17:52:33.754Z,1002.72
2023-05-20T18:02:39.372Z,1002.76
2023-05-20T18:12:45.130Z,1002.87
2023-05-20T18:22:50.885Z,1002.96
2023-05-20T18:32:56.612Z,1002.91
2023-05-20T18:43:02.387Z,1002.82
2023-05-20T18:53:08.596Z,1002.91
2023-05-20T19:03:14.218Z,1002.84
2023-05-20T19:13:19.718Z,1002.88
2023-05-20T19:23:25.710Z,1002.93
2023-05-20T19:33:31.805Z,1002.99
2023-05-20T19:43:37.661Z,1003.07
2023-05-20T19:53:43.560Z,1003.15
2023-05-20T20:03:49.242Z,1003.18
2023-05-20T20:13:55.313Z,1003.20
2023-05-20T20:24:00.772Z,1003.25
2023-05-20T20:34:06.499Z,1003.28
2023-05-20T20:44:12.258Z,1003.38
2023-05-20T20:54:18.048Z,1003.44
2023-05-20T21:04:23.671Z,1003.45
2023-05-20T21:14:29.739Z,1003.26
2023-05-20T21:24:35.810Z,1003.19
2023-05-20T21:34:41.791Z,1003.19
2023-05-20T21:44:48.037Z,1003.16
2023-05-20T21:54:53.683Z,1003.17
2023-05-20T22:04:59.521Z,1003.16
2023-05-20T22:15:04.777Z,1003.13
2023-05-20T22:25:10.754Z,1003.15
2023-05-20T22:35:16.566Z,1003.03
2023-05-20T22:45:22.551Z,1002.94
2023-05-20T22:55:28.633Z,1002.89
2023-05-20T23:05:34.588Z,1002.74
2023-05-20T23:15:40.761Z,1002.78
2023-05-20T23:25:46.417Z,1002.73
2023-05-20T23:35:51.806Z,1002.83
2023-05-20T23:45:57.472Z,1002.84
2023-05-20T23:56:03.098Z,1002.78
